sensor_id;sensor_type;location;lat;lon;timestamp;P1;durP1;ratioP1;P2;durP2;ratioP2
68214;SDS011;55036;52.138;5.236;2023-04-03T00:01:04;2.15;;;1.00;;
68214;SDS011;55036;52.138;5.236;2023-04-03T00:03:31;3.58;;;1.42;;
68214;SDS011;55036;52.138;5.236;2023-04-03T00:05:59;4.60;;;1.30;;
68214;SDS011;55036;52.138;5.236;2023-04-03T00:08:26;3.45;;;1.60;;
68214;SDS011;55036;52.138;5.236;2023-04-03T00:10:52;1.83;;;1.10;;
68214;SDS011;55036;52.138;5.236;2023-04-03T00:13:19;3.22;;;1.48;;
68214;SDS011;55036;52.138;5.236;2023-04-03T00:15:46;3.50;;;1.40;;
68214;SDS011;55036;52.138;5.236;2023-04-03T00:18:12;4.20;;;1.52;;
68214;SDS011;55036;52.138;5.236;2023-04-03T00:20:39;2.88;;;1.50;;
68214;SDS011;55036;52.138;5.236;2023-04-03T00:23:06;2.33;;;1.30;;
68214;SDS011;55036;52.138;5.236;2023-04-03T00:25:33;4.70;;;1.60;;
68214;SDS011;55036;52.138;5.236;2023-04-03T00:28:00;2.75;;;1.30;;
68214;SDS011;55036;52.138;5.236;2023-04-03T00:30:27;5.28;;;1.45;;
68214;SDS011;55036;52.138;5.236;2023-04-03T00:32:54;4.13;;;1.42;;
68214;SDS011;55036;52.138;5.236;2023-04-03T00:35:21;3.13;;;1.13;;
68214;SDS011;55036;52.138;5.236;2023-04-03T00:37:50;2.20;;;1.10;;
68214;SDS011;55036;52.138;5.236;2023-04-03T00:40:19;4.22;;;1.50;;
68214;SDS011;55036;52.138;5.236;2023-04-03T00:42:47;4.22;;;1.10;;
68214;SDS011;55036;52.138;5.236;2023-04-03T00:45:25;3.17;;;1.20;;
68214;SDS011;55036;52.138;5.236;2023-04-03T00:48:04;1.92;;;1.30;;
68214;SDS011;55036;52.138;5.236;2023-04-03T00:50:34;2.55;;;1.40;;
68214;SDS011;55036;52.138;5.236;2023-04-03T00:53:04;3.35;;;2.03;;
68214;SDS011;55036;52.138;5.236;2023-04-03T00:55:33;3.53;;;1.48;;
68214;SDS011;55036;52.138;5.236;2023-04-03T00:58:02;2.70;;;1.58;;
68214;SDS011;55036;52.138;5.236;2023-04-03T01:00:32;2.33;;;1.50;;
68214;SDS011;55036;52.138;5.236;2023-04-03T01:03:02;4.68;;;1.48;;
68214;SDS011;55036;52.138;5.236;2023-04-03T01:05:28;3.45;;;1.45;;
68214;SDS011;55036;52.138;5.236;2023-04-03T01:07:55;2.97;;;1.60;;
68214;SDS011;55036;52.138;5.236;2023-04-03T01:10:23;3.30;;;1.17;;
68214;SDS011;55036;52.138;5.236;2023-04-03T01:12:52;4.22;;;1.60;;
68214;SDS011;55036;52.138;5.236;2023-04-03T01:15:20;3.33;;;1.25;;
68214;SDS011;55036;52.138;5.236;2023-04-03T01:17:50;5.10;;;1.60;;
68214;SDS011;55036;52.138;5.236;2023-04-03T01:25:46;4.35;;;1.60;;
68214;SDS011;55036;52.138;5.236;2023-04-03T01:28:20;5.05;;;1.30;;
68214;SDS011;55036;52.138;5.236;2023-04-03T01:33:45;5.78;;;1.60;;
68214;SDS011;55036;52.138;5.236;2023-04-03T01:36:17;2.78;;;1.67;;
68214;SDS011;55036;52.138;5.236;2023-04-03T01:38:47;4.63;;;1.55;;
68214;SDS011;55036;52.138;5.236;2023-04-03T01:41:14;4.38;;;1.60;;
68214;SDS011;55036;52.138;5.236;2023-04-03T01:43:42;2.42;;;1.30;;
68214;SDS011;55036;52.138;5.236;2023-04-03T01:46:09;4.47;;;1.73;;
68214;SDS011;55036;52.138;5.236;2023-04-03T01:48:36;4.43;;;1.88;;
68214;SDS011;55036;52.138;5.236;2023-04-03T01:51:03;3.63;;;1.50;;
68214;SDS011;55036;52.138;5.236;2023-04-03T01:53:29;3.25;;;1.83;;
68214;SDS011;55036;52.138;5.236;2023-04-03T01:55:56;6.25;;;2.65;;
68214;SDS011;55036;52.138;5.236;2023-04-03T01:58:23;3.25;;;1.67;;
68214;SDS011;55036;52.138;5.236;2023-04-03T02:00:50;3.85;;;1.65;;
68214;SDS011;55036;52.138;5.236;2023-04-03T02:03:18;4.82;;;1.45;;
68214;SDS011;55036;52.138;5.236;2023-04-03T02:05:45;4.55;;;1.98;;
68214;SDS011;55036;52.138;5.236;2023-04-03T02:08:11;4.65;;;2.00;;
68214;SDS011;55036;52.138;5.236;2023-04-03T02:10:39;2.40;;;1.70;;
68214;SDS011;55036;52.138;5.236;2023-04-03T02:13:06;2.58;;;1.50;;
68214;SDS011;55036;52.138;5.236;2023-04-03T02:15:32;3.83;;;1.63;;
68214;SDS011;55036;52.138;5.236;2023-04-03T02:17:59;3.53;;;1.50;;
68214;SDS011;55036;52.138;5.236;2023-04-03T02:20:26;4.82;;;2.05;;
68214;SDS011;55036;52.138;5.236;2023-04-03T02:22:53;3.78;;;1.83;;
68214;SDS011;55036;52.138;5.236;2023-04-03T02:25:19;4.25;;;1.80;;
68214;SDS011;55036;52.138;5.236;2023-04-03T02:27:46;4.03;;;1.75;;
68214;SDS011;55036;52.138;5.236;2023-04-03T02:30:13;3.88;;;1.50;;
68214;SDS011;55036;52.138;5.236;2023-04-03T02:32:41;7.75;;;1.90;;
68214;SDS011;55036;52.138;5.236;2023-04-03T02:35:08;3.00;;;1.48;;
68214;SDS011;55036;52.138;5.236;2023-04-03T02:37:36;4.95;;;1.90;;
68214;SDS011;55036;52.138;5.236;2023-04-03T02:40:03;3.72;;;1.48;;
68214;SDS011;55036;52.138;5.236;2023-04-03T02:42:31;3.85;;;1.83;;
68214;SDS011;55036;52.138;5.236;2023-04-03T02:44:58;4.28;;;1.50;;
68214;SDS011;55036;52.138;5.236;2023-04-03T02:47:26;5.70;;;1.90;;
68214;SDS011;55036;52.138;5.236;2023-04-03T02:49:54;4.20;;;1.50;;
68214;SDS011;55036;52.138;5.236;2023-04-03T02:52:21;3.88;;;1.80;;
68214;SDS011;55036;52.138;5.236;2023-04-03T02:54:47;3.42;;;1.67;;
68214;SDS011;55036;52.138;5.236;2023-04-03T02:57:14;7.15;;;1.63;;
68214;SDS011;55036;52.138;5.236;2023-04-03T02:59:41;6.35;;;1.90;;
68214;SDS011;55036;52.138;5.236;2023-04-03T03:02:08;6.75;;;1.98;;
68214;SDS011;55036;52.138;5.236;2023-04-03T03:04:35;4.03;;;1.70;;
68214;SDS011;55036;52.138;5.236;2023-04-03T03:07:02;4.65;;;1.60;;
68214;SDS011;55036;52.138;5.236;2023-04-03T03:09:30;3.70;;;1.85;;
68214;SDS011;55036;52.138;5.236;2023-04-03T03:11:56;3.58;;;1.60;;
68214;SDS011;55036;52.138;5.236;2023-04-03T03:14:23;5.93;;;1.80;;
68214;SDS011;55036;52.138;5.236;2023-04-03T03:16:50;5.50;;;1.98;;
68214;SDS011;55036;52.138;5.236;2023-04-03T03:19:17;2.55;;;1.25;;
68214;SDS011;55036;52.138;5.236;2023-04-03T03:21:44;5.55;;;1.70;;
68214;SDS011;55036;52.138;5.236;2023-04-03T03:24:11;3.78;;;1.98;;
68214;SDS011;55036;52.138;5.236;2023-04-03T03:26:38;4.32;;;1.42;;
68214;SDS011;55036;52.138;5.236;2023-04-03T03:29:04;5.55;;;1.60;;
68214;SDS011;55036;52.138;5.236;2023-04-03T03:31:31;2.90;;;1.60;;
68214;SDS011;55036;52.138;5.236;2023-04-03T03:33:58;4.63;;;1.80;;
68214;SDS011;55036;52.138;5.236;2023-04-03T03:36:25;2.42;;;1.40;;
68214;SDS011;55036;52.138;5.236;2023-04-03T03:38:51;6.70;;;2.05;;
68214;SDS011;55036;52.138;5.236;2023-04-03T03:41:18;6.07;;;1.80;;
68214;SDS011;55036;52.138;5.236;2023-04-03T03:43:45;4.85;;;1.73;;
68214;SDS011;55036;52.138;5.236;2023-04-03T03:46:11;3.10;;;1.48;;
68214;SDS011;55036;52.138;5.236;2023-04-03T03:48:38;3.45;;;1.70;;
68214;SDS011;55036;52.138;5.236;2023-04-03T03:51:05;4.93;;;2.20;;
68214;SDS011;55036;52.138;5.236;2023-04-03T03:53:32;3.03;;;1.73;;
68214;SDS011;55036;52.138;5.236;2023-04-03T03:55:59;3.45;;;1.65;;
68214;SDS011;55036;52.138;5.236;2023-04-03T03:58:26;3.90;;;1.65;;
68214;SDS011;55036;52.138;5.236;2023-04-03T04:00:52;4.70;;;1.50;;
68214;SDS011;55036;52.138;5.236;2023-04-03T04:03:19;4.38;;;1.92;;
68214;SDS011;55036;52.138;5.236;2023-04-03T04:05:47;3.15;;;1.70;;
68214;SDS011;55036;52.138;5.236;2023-04-03T04:08:13;3.22;;;1.75;;
68214;SDS011;55036;52.138;5.236;2023-04-03T04:10:40;4.80;;;1.35;;
68214;SDS011;55036;52.138;5.236;2023-04-03T04:13:07;3.47;;;1.58;;
68214;SDS011;55036;52.138;5.236;2023-04-03T04:15:34;7.93;;;2.13;;
68214;SDS011;55036;52.138;5.236;2023-04-03T04:18:01;6.43;;;1.98;;
68214;SDS011;55036;52.138;5.236;2023-04-03T04:20:28;4.82;;;2.30;;
68214;SDS011;55036;52.138;5.236;2023-04-03T04:22:55;5.20;;;1.65;;
68214;SDS011;55036;52.138;5.236;2023-04-03T04:25:21;5.20;;;1.83;;
68214;SDS011;55036;52.138;5.236;2023-04-03T04:27:48;3.72;;;1.98;;
68214;SDS011;55036;52.138;5.236;2023-04-03T04:30:15;8.13;;;2.00;;
68214;SDS011;55036;52.138;5.236;2023-04-03T04:32:42;2.95;;;1.30;;
68214;SDS011;55036;52.138;5.236;2023-04-03T04:35:08;4.38;;;2.35;;
68214;SDS011;55036;52.138;5.236;2023-04-03T04:37:36;5.43;;;2.13;;
68214;SDS011;55036;52.138;5.236;2023-04-03T04:40:02;5.40;;;1.70;;
68214;SDS011;55036;52.138;5.236;2023-04-03T04:42:29;4.90;;;2.20;;
68214;SDS011;55036;52.138;5.236;2023-04-03T04:44:56;5.50;;;1.98;;
68214;SDS011;55036;52.138;5.236;2023-04-03T04:47:22;7.15;;;2.28;;
68214;SDS011;55036;52.138;5.236;2023-04-03T04:49:49;4.57;;;1.90;;
68214;SDS011;55036;52.138;5.236;2023-04-03T04:52:16;3.20;;;1.95;;
68214;SDS011;55036;52.138;5.236;2023-04-03T04:54:43;4.43;;;1.95;;
68214;SDS011;55036;52.138;5.236;2023-04-03T04:57:10;6.47;;;2.03;;
68214;SDS011;55036;52.138;5.236;2023-04-03T04:59:37;4.30;;;2.00;;
68214;SDS011;55036;52.138;5.236;2023-04-03T05:02:04;4.03;;;1.90;;
68214;SDS011;55036;52.138;5.236;2023-04-03T05:04:31;4.97;;;2.45;;
68214;SDS011;55036;52.138;5.236;2023-04-03T05:06:57;3.45;;;1.73;;
68214;SDS011;55036;52.138;5.236;2023-04-03T05:09:25;4.20;;;2.10;;
68214;SDS011;55036;52.138;5.236;2023-04-03T05:11:52;5.30;;;2.08;;
68214;SDS011;55036;52.138;5.236;2023-04-03T05:14:19;5.07;;;2.20;;
68214;SDS011;55036;52.138;5.236;2023-04-03T05:16:46;6.38;;;2.60;;
68214;SDS011;55036;52.138;5.236;2023-04-03T05:19:16;5.35;;;2.75;;
68214;SDS011;55036;52.138;5.236;2023-04-03T05:21:43;6.35;;;2.17;;
68214;SDS011;55036;52.138;5.236;2023-04-03T05:24:09;7.93;;;2.65;;
68214;SDS011;55036;52.138;5.236;2023-04-03T05:26:36;9.15;;;3.83;;
68214;SDS011;55036;52.138;5.236;2023-04-03T05:29:03;5.35;;;2.55;;
68214;SDS011;55036;52.138;5.236;2023-04-03T05:31:30;6.78;;;2.30;;
68214;SDS011;55036;52.138;5.236;2023-04-03T05:33:57;4.07;;;2.08;;
68214;SDS011;55036;52.138;5.236;2023-04-03T05:36:24;9.20;;;2.30;;
68214;SDS011;55036;52.138;5.236;2023-04-03T05:38:52;7.85;;;2.47;;
68214;SDS011;55036;52.138;5.236;2023-04-03T05:41:19;5.30;;;2.50;;
68214;SDS011;55036;52.138;5.236;2023-04-03T05:43:47;5.13;;;2.22;;
68214;SDS011;55036;52.138;5.236;2023-04-03T05:46:15;6.57;;;2.65;;
68214;SDS011;55036;52.138;5.236;2023-04-03T05:48:43;2.65;;;2.00;;
68214;SDS011;55036;52.138;5.236;2023-04-03T05:51:15;4.32;;;2.22;;
68214;SDS011;55036;52.138;5.236;2023-04-03T05:53:47;5.88;;;2.15;;
68214;SDS011;55036;52.138;5.236;2023-04-03T05:56:16;5.18;;;2.00;;
68214;SDS011;55036;52.138;5.236;2023-04-03T05:58:43;3.63;;;2.38;;
68214;SDS011;55036;52.138;5.236;2023-04-03T06:01:10;6.53;;;2.42;;
68214;SDS011;55036;52.138;5.236;2023-04-03T06:03:37;6.43;;;2.22;;
68214;SDS011;55036;52.138;5.236;2023-04-03T06:06:06;5.45;;;2.00;;
68214;SDS011;55036;52.138;5.236;2023-04-03T06:08:34;4.57;;;1.90;;
68214;SDS011;55036;52.138;5.236;2023-04-03T06:11:01;5.32;;;2.00;;
68214;SDS011;55036;52.138;5.236;2023-04-03T06:13:28;7.05;;;2.05;;
68214;SDS011;55036;52.138;5.236;2023-04-03T06:15:55;6.07;;;1.80;;
68214;SDS011;55036;52.138;5.236;2023-04-03T06:18:22;10.60;;;2.00;;
68214;SDS011;55036;52.138;5.236;2023-04-03T06:20:49;9.23;;;2.15;;
68214;SDS011;55036;52.138;5.236;2023-04-03T06:23:16;4.82;;;1.92;;
68214;SDS011;55036;52.138;5.236;2023-04-03T06:25:43;2.45;;;1.25;;
68214;SDS011;55036;52.138;5.236;2023-04-03T06:28:10;5.60;;;2.05;;
68214;SDS011;55036;52.138;5.236;2023-04-03T06:30:37;6.78;;;1.80;;
68214;SDS011;55036;52.138;5.236;2023-04-03T06:33:04;8.20;;;1.60;;
68214;SDS011;55036;52.138;5.236;2023-04-03T06:35:31;6.25;;;2.03;;
68214;SDS011;55036;52.138;5.236;2023-04-03T06:37:57;4.72;;;1.92;;
68214;SDS011;55036;52.138;5.236;2023-04-03T06:40:24;3.50;;;1.92;;
68214;SDS011;55036;52.138;5.236;2023-04-03T06:42:52;6.80;;;1.83;;
68214;SDS011;55036;52.138;5.236;2023-04-03T06:45:19;4.18;;;1.42;;
68214;SDS011;55036;52.138;5.236;2023-04-03T06:47:46;5.38;;;1.88;;
68214;SDS011;55036;52.138;5.236;2023-04-03T06:50:13;8.65;;;1.80;;
68214;SDS011;55036;52.138;5.236;2023-04-03T06:52:40;6.38;;;1.63;;
68214;SDS011;55036;52.138;5.236;2023-04-03T06:55:08;6.10;;;1.80;;
68214;SDS011;55036;52.138;5.236;2023-04-03T06:57:36;4.18;;;1.60;;
68214;SDS011;55036;52.138;5.236;2023-04-03T07:00:03;5.20;;;2.13;;
68214;SDS011;55036;52.138;5.236;2023-04-03T07:02:32;4.55;;;1.52;;
68214;SDS011;55036;52.138;5.236;2023-04-03T07:04:58;7.68;;;1.98;;
68214;SDS011;55036;52.138;5.236;2023-04-03T07:07:25;9.75;;;2.17;;
68214;SDS011;55036;52.138;5.236;2023-04-03T07:09:52;4.75;;;1.25;;
68214;SDS011;55036;52.138;5.236;2023-04-03T07:12:19;5.28;;;2.08;;
68214;SDS011;55036;52.138;5.236;2023-04-03T07:14:46;6.68;;;1.45;;
68214;SDS011;55036;52.138;5.236;2023-04-03T07:17:13;5.00;;;2.10;;
68214;SDS011;55036;52.138;5.236;2023-04-03T07:19:40;5.90;;;1.80;;
68214;SDS011;55036;52.138;5.236;2023-04-03T07:22:07;3.20;;;1.52;;
68214;SDS011;55036;52.138;5.236;2023-04-03T07:24:34;2.95;;;1.50;;
68214;SDS011;55036;52.138;5.236;2023-04-03T07:27:01;8.25;;;1.90;;
68214;SDS011;55036;52.138;5.236;2023-04-03T07:29:29;3.83;;;1.83;;
68214;SDS011;55036;52.138;5.236;2023-04-03T07:31:56;6.47;;;1.42;;
68214;SDS011;55036;52.138;5.236;2023-04-03T07:34:23;8.18;;;2.47;;
68214;SDS011;55036;52.138;5.236;2023-04-03T07:36:49;4.30;;;1.33;;
68214;SDS011;55036;52.138;5.236;2023-04-03T07:39:16;5.82;;;1.73;;
68214;SDS011;55036;52.138;5.236;2023-04-03T07:41:43;4.95;;;1.63;;
68214;SDS011;55036;52.138;5.236;2023-04-03T07:44:10;4.47;;;1.65;;
68214;SDS011;55036;52.138;5.236;2023-04-03T07:46:37;4.95;;;1.50;;
68214;SDS011;55036;52.138;5.236;2023-04-03T07:49:04;3.78;;;1.50;;
68214;SDS011;55036;52.138;5.236;2023-04-03T07:51:31;4.10;;;1.33;;
68214;SDS011;55036;52.138;5.236;2023-04-03T07:53:57;5.07;;;1.48;;
68214;SDS011;55036;52.138;5.236;2023-04-03T07:56:24;4.63;;;1.50;;
68214;SDS011;55036;52.138;5.236;2023-04-03T07:58:51;3.67;;;1.67;;
68214;SDS011;55036;52.138;5.236;2023-04-03T08:01:18;3.45;;;1.38;;
68214;SDS011;55036;52.138;5.236;2023-04-03T08:03:44;4.20;;;1.55;;
68214;SDS011;55036;52.138;5.236;2023-04-03T08:06:11;2.95;;;1.40;;
68214;SDS011;55036;52.138;5.236;2023-04-03T08:08:42;5.80;;;1.70;;
68214;SDS011;55036;52.138;5.236;2023-04-03T08:11:09;2.60;;;1.27;;
68214;SDS011;55036;52.138;5.236;2023-04-03T08:13:36;3.28;;;1.10;;
68214;SDS011;55036;52.138;5.236;2023-04-03T08:16:08;5.60;;;1.42;;
68214;SDS011;55036;52.138;5.236;2023-04-03T08:18:39;2.45;;;1.10;;
68214;SDS011;55036;52.138;5.236;2023-04-03T08:21:06;4.47;;;1.77;;
68214;SDS011;55036;52.138;5.236;2023-04-03T08:23:34;3.33;;;1.33;;
68214;SDS011;55036;52.138;5.236;2023-04-03T08:26:08;8.20;;;1.45;;
68214;SDS011;55036;52.138;5.236;2023-04-03T08:28:39;2.70;;;1.48;;
68214;SDS011;55036;52.138;5.236;2023-04-03T08:31:07;3.33;;;1.10;;
68214;SDS011;55036;52.138;5.236;2023-04-03T08:33:37;5.43;;;1.40;;
68214;SDS011;55036;52.138;5.236;2023-04-03T08:36:06;5.38;;;1.45;;
68214;SDS011;55036;52.138;5.236;2023-04-03T08:38:41;2.65;;;0.90;;
68214;SDS011;55036;52.138;5.236;2023-04-03T08:41:16;3.63;;;1.25;;
68214;SDS011;55036;52.138;5.236;2023-04-03T08:45:01;3.28;;;1.45;;
68214;SDS011;55036;52.138;5.236;2023-04-03T08:52:32;2.53;;;0.70;;
68214;SDS011;55036;52.138;5.236;2023-04-03T08:55:42;1.98;;;1.00;;
68214;SDS011;55036;52.138;5.236;2023-04-03T08:58:28;2.45;;;0.93;;
68214;SDS011;55036;52.138;5.236;2023-04-03T09:00:59;4.60;;;1.25;;
68214;SDS011;55036;52.138;5.236;2023-04-03T09:03:32;2.40;;;0.75;;
68214;SDS011;55036;52.138;5.236;2023-04-03T09:06:05;3.58;;;1.42;;
68214;SDS011;55036;52.138;5.236;2023-04-03T09:08:42;3.83;;;1.02;;
68214;SDS011;55036;52.138;5.236;2023-04-03T09:13:54;3.38;;;1.05;;
68214;SDS011;55036;52.138;5.236;2023-04-03T09:16:31;1.38;;;0.60;;
68214;SDS011;55036;52.138;5.236;2023-04-03T09:24:50;1.40;;;0.80;;
68214;SDS011;55036;52.138;5.236;2023-04-03T09:27:32;2.63;;;0.90;;
68214;SDS011;55036;52.138;5.236;2023-04-03T09:29:58;1.42;;;0.70;;
68214;SDS011;55036;52.138;5.236;2023-04-03T09:35:03;1.52;;;0.47;;
68214;SDS011;55036;52.138;5.236;2023-04-03T09:37:49;0.50;;;0.40;;
68214;SDS011;55036;52.138;5.236;2023-04-03T09:42:53;2.50;;;0.65;;
68214;SDS011;55036;52.138;5.236;2023-04-03T09:45:31;1.63;;;0.50;;
68214;SDS011;55036;52.138;5.236;2023-04-03T09:50:38;1.00;;;0.50;;
68214;SDS011;55036;52.138;5.236;2023-04-03T09:53:32;0.47;;;0.32;;
68214;SDS011;55036;52.138;5.236;2023-04-03T09:56:27;1.40;;;0.50;;
68214;SDS011;55036;52.138;5.236;2023-04-03T10:04:12;2.05;;;0.70;;
68214;SDS011;55036;52.138;5.236;2023-04-03T10:06:44;2.23;;;0.60;;
68214;SDS011;55036;52.138;5.236;2023-04-03T10:09:26;1.35;;;0.38;;
68214;SDS011;55036;52.138;5.236;2023-04-03T10:14:33;3.17;;;0.50;;
68214;SDS011;55036;52.138;5.236;2023-04-03T10:22:20;1.67;;;0.45;;
68214;SDS011;55036;52.138;5.236;2023-04-03T10:28:03;0.68;;;0.40;;
68214;SDS011;55036;52.138;5.236;2023-04-03T10:30:50;1.48;;;0.40;;
68214;SDS011;55036;52.138;5.236;2023-04-03T10:33:24;0.65;;;0.30;;
68214;SDS011;55036;52.138;5.236;2023-04-03T10:41:19;0.47;;;0.45;;
68214;SDS011;55036;52.138;5.236;2023-04-03T10:44:10;2.08;;;0.40;;
68214;SDS011;55036;52.138;5.236;2023-04-03T10:46:38;0.95;;;0.43;;
68214;SDS011;55036;52.138;5.236;2023-04-03T10:51:45;0.52;;;0.38;;
68214;SDS011;55036;52.138;5.236;2023-04-03T10:54:36;1.00;;;0.40;;
68214;SDS011;55036;52.138;5.236;2023-04-03T10:57:10;2.17;;;0.60;;
68214;SDS011;55036;52.138;5.236;2023-04-03T10:59:52;0.85;;;0.50;;
68214;SDS011;55036;52.138;5.236;2023-04-03T11:02:25;1.10;;;0.40;;
68214;SDS011;55036;52.138;5.236;2023-04-03T11:05:35;2.40;;;0.70;;
68214;SDS011;55036;52.138;5.236;2023-04-03T11:08:52;0.70;;;0.30;;
68214;SDS011;55036;52.138;5.236;2023-04-03T11:10:55;0.80;;;0.47;;
68214;SDS011;55036;52.138;5.236;2023-04-03T11:13:33;1.40;;;0.60;;
68214;SDS011;55036;52.138;5.236;2023-04-03T11:16:06;0.93;;;0.55;;
68214;SDS011;55036;52.138;5.236;2023-04-03T11:18:35;1.65;;;0.50;;
68214;SDS011;55036;52.138;5.236;2023-04-03T11:21:26;0.63;;;0.40;;
68214;SDS011;55036;52.138;5.236;2023-04-03T11:24:05;0.30;;;0.30;;
68214;SDS011;55036;52.138;5.236;2023-04-03T11:26:41;1.58;;;0.47;;
68214;SDS011;55036;52.138;5.236;2023-04-03T11:29:10;1.17;;;0.57;;
68214;SDS011;55036;52.138;5.236;2023-04-03T11:34:57;0.40;;;0.30;;
68214;SDS011;55036;52.138;5.236;2023-04-03T11:37:43;1.75;;;0.50;;
68214;SDS011;55036;52.138;5.236;2023-04-03T11:40:21;1.48;;;0.65;;
68214;SDS011;55036;52.138;5.236;2023-04-03T11:42:53;1.70;;;0.73;;
68214;SDS011;55036;52.138;5.236;2023-04-03T11:45:40;2.45;;;0.57;;
68214;SDS011;55036;52.138;5.236;2023-04-03T11:50:55;1.75;;;0.70;;
68214;SDS011;55036;52.138;5.236;2023-04-03T11:53:26;1.10;;;0.68;;
68214;SDS011;55036;52.138;5.236;2023-04-03T11:55:54;1.73;;;0.70;;
68214;SDS011;55036;52.138;5.236;2023-04-03T11:58:30;2.63;;;0.70;;
68214;SDS011;55036;52.138;5.236;2023-04-03T12:01:08;0.95;;;0.50;;
68214;SDS011;55036;52.138;5.236;2023-04-03T12:16:22;15.95;;;1.48;;
68214;SDS011;55036;52.138;5.236;2023-04-03T12:32:10;0.63;;;0.60;;
68214;SDS011;55036;52.138;5.236;2023-04-03T12:35:01;1.42;;;0.50;;
68214;SDS011;55036;52.138;5.236;2023-04-03T12:43:25;2.95;;;0.60;;
68214;SDS011;55036;52.138;5.236;2023-04-03T12:48:37;1.45;;;0.70;;
68214;SDS011;55036;52.138;5.236;2023-04-03T12:51:18;2.83;;;0.70;;
68214;SDS011;55036;52.138;5.236;2023-04-03T12:53:52;3.22;;;0.80;;
68214;SDS011;55036;52.138;5.236;2023-04-03T12:56:30;4.78;;;0.73;;
68214;SDS011;55036;52.138;5.236;2023-04-03T13:01:58;1.35;;;0.60;;
68214;SDS011;55036;52.138;5.236;2023-04-03T13:04:27;0.50;;;0.40;;
68214;SDS011;55036;52.138;5.236;2023-04-03T13:06:54;2.70;;;0.95;;
68214;SDS011;55036;52.138;5.236;2023-04-03T13:09:25;2.28;;;0.70;;
68214;SDS011;55036;52.138;5.236;2023-04-03T13:11:58;1.50;;;0.75;;
68214;SDS011;55036;52.138;5.236;2023-04-03T13:14:28;3.30;;;1.00;;
68214;SDS011;55036;52.138;5.236;2023-04-03T13:16:56;2.85;;;0.95;;
68214;SDS011;55036;52.138;5.236;2023-04-03T13:19:26;1.05;;;0.60;;
68214;SDS011;55036;52.138;5.236;2023-04-03T13:22:05;0.52;;;0.50;;
68214;SDS011;55036;52.138;5.236;2023-04-03T13:24:35;0.50;;;0.47;;
68214;SDS011;55036;52.138;5.236;2023-04-03T13:27:04;1.60;;;0.90;;
68214;SDS011;55036;52.138;5.236;2023-04-03T13:29:33;2.72;;;1.10;;
68214;SDS011;55036;52.138;5.236;2023-04-03T13:32:02;1.75;;;0.80;;
68214;SDS011;55036;52.138;5.236;2023-04-03T13:34:38;1.02;;;0.60;;
68214;SDS011;55036;52.138;5.236;2023-04-03T13:37:11;2.35;;;0.88;;
68214;SDS011;55036;52.138;5.236;2023-04-03T13:39:58;3.00;;;0.90;;
68214;SDS011;55036;52.138;5.236;2023-04-03T13:42:35;2.47;;;1.10;;
68214;SDS011;55036;52.138;5.236;2023-04-03T13:45:16;3.30;;;0.90;;
68214;SDS011;55036;52.138;5.236;2023-04-03T13:48:07;1.13;;;0.60;;
68214;SDS011;55036;52.138;5.236;2023-04-03T13:50:51;4.28;;;0.95;;
68214;SDS011;55036;52.138;5.236;2023-04-03T13:53:30;2.83;;;0.63;;
68214;SDS011;55036;52.138;5.236;2023-04-03T13:58:30;3.10;;;0.90;;
68214;SDS011;55036;52.138;5.236;2023-04-03T14:03:45;1.80;;;1.02;;
68214;SDS011;55036;52.138;5.236;2023-04-03T14:06:17;1.17;;;0.82;;
68214;SDS011;55036;52.138;5.236;2023-04-03T14:08:44;1.40;;;0.77;;
68214;SDS011;55036;52.138;5.236;2023-04-03T14:11:22;5.68;;;0.90;;
68214;SDS011;55036;52.138;5.236;2023-04-03T14:13:54;2.25;;;0.70;;
68214;SDS011;55036;52.138;5.236;2023-04-03T14:16:25;0.80;;;0.60;;
68214;SDS011;55036;52.138;5.236;2023-04-03T14:18:55;3.80;;;1.30;;
68214;SDS011;55036;52.138;5.236;2023-04-03T14:21:23;0.82;;;0.47;;
68214;SDS011;55036;52.138;5.236;2023-04-03T14:23:50;2.97;;;1.10;;
68214;SDS011;55036;52.138;5.236;2023-04-03T14:26:18;2.00;;;0.77;;
68214;SDS011;55036;52.138;5.236;2023-04-03T14:28:48;1.60;;;0.80;;
68214;SDS011;55036;52.138;5.236;2023-04-03T14:31:18;2.90;;;1.00;;
68214;SDS011;55036;52.138;5.236;2023-04-03T14:33:45;0.90;;;0.77;;
68214;SDS011;55036;52.138;5.236;2023-04-03T14:36:13;6.30;;;1.10;;
68214;SDS011;55036;52.138;5.236;2023-04-03T14:38:43;2.28;;;0.80;;
68214;SDS011;55036;52.138;5.236;2023-04-03T14:41:15;2.45;;;1.10;;
68214;SDS011;55036;52.138;5.236;2023-04-03T14:43:44;3.95;;;1.15;;
68214;SDS011;55036;52.138;5.236;2023-04-03T14:46:13;3.13;;;1.02;;
68214;SDS011;55036;52.138;5.236;2023-04-03T14:48:41;2.33;;;0.88;;
68214;SDS011;55036;52.138;5.236;2023-04-03T14:51:11;2.50;;;1.30;;
68214;SDS011;55036;52.138;5.236;2023-04-03T14:53:40;2.42;;;1.05;;
68214;SDS011;55036;52.138;5.236;2023-04-03T14:56:15;1.35;;;0.98;;
68214;SDS011;55036;52.138;5.236;2023-04-03T14:58:44;1.10;;;0.82;;
68214;SDS011;55036;52.138;5.236;2023-04-03T15:01:15;3.22;;;0.93;;
68214;SDS011;55036;52.138;5.236;2023-04-03T15:03:43;1.40;;;0.77;;
68214;SDS011;55036;52.138;5.236;2023-04-03T15:06:11;2.90;;;1.23;;
68214;SDS011;55036;52.138;5.236;2023-04-03T15:08:38;3.33;;;1.02;;
68214;SDS011;55036;52.138;5.236;2023-04-03T15:11:08;1.35;;;0.95;;
68214;SDS011;55036;52.138;5.236;2023-04-03T15:13:36;2.80;;;1.08;;
68214;SDS011;55036;52.138;5.236;2023-04-03T15:16:04;2.83;;;1.00;;
68214;SDS011;55036;52.138;5.236;2023-04-03T15:18:37;1.75;;;1.00;;
68214;SDS011;55036;52.138;5.236;2023-04-03T15:21:04;4.30;;;1.40;;
68214;SDS011;55036;52.138;5.236;2023-04-03T15:23:31;2.90;;;1.05;;
68214;SDS011;55036;52.138;5.236;2023-04-03T15:25:58;5.28;;;1.35;;
68214;SDS011;55036;52.138;5.236;2023-04-03T15:30:58;3.92;;;1.10;;
68214;SDS011;55036;52.138;5.236;2023-04-03T15:33:25;3.63;;;1.52;;
68214;SDS011;55036;52.138;5.236;2023-04-03T15:35:52;3.63;;;0.95;;
68214;SDS011;55036;52.138;5.236;2023-04-03T15:38:24;3.47;;;1.27;;
68214;SDS011;55036;52.138;5.236;2023-04-03T15:40:51;3.15;;;1.17;;
68214;SDS011;55036;52.138;5.236;2023-04-03T15:43:18;3.40;;;1.38;;
68214;SDS011;55036;52.138;5.236;2023-04-03T15:45:44;2.15;;;0.85;;
68214;SDS011;55036;52.138;5.236;2023-04-03T15:48:11;3.83;;;1.08;;
68214;SDS011;55036;52.138;5.236;2023-04-03T15:50:38;2.20;;;0.90;;
68214;SDS011;55036;52.138;5.236;2023-04-03T15:53:06;5.05;;;1.08;;
68214;SDS011;55036;52.138;5.236;2023-04-03T15:55:35;4.22;;;1.05;;
68214;SDS011;55036;52.138;5.236;2023-04-03T15:58:03;3.28;;;1.10;;
68214;SDS011;55036;52.138;5.236;2023-04-03T16:00:30;2.90;;;1.17;;
68214;SDS011;55036;52.138;5.236;2023-04-03T16:03:04;3.92;;;1.20;;
68214;SDS011;55036;52.138;5.236;2023-04-03T16:05:35;1.83;;;1.02;;
68214;SDS011;55036;52.138;5.236;2023-04-03T16:08:03;3.17;;;1.38;;
68214;SDS011;55036;52.138;5.236;2023-04-03T16:10:31;5.10;;;1.60;;
68214;SDS011;55036;52.138;5.236;2023-04-03T16:12:58;2.20;;;1.05;;
68214;SDS011;55036;52.138;5.236;2023-04-03T16:15:24;2.03;;;1.23;;
68214;SDS011;55036;52.138;5.236;2023-04-03T16:17:52;4.13;;;1.42;;
68214;SDS011;55036;52.138;5.236;2023-04-03T16:20:20;4.55;;;1.30;;
68214;SDS011;55036;52.138;5.236;2023-04-03T16:22:48;4.85;;;1.25;;
68214;SDS011;55036;52.138;5.236;2023-04-03T16:25:15;3.10;;;1.30;;
68214;SDS011;55036;52.138;5.236;2023-04-03T16:27:43;3.38;;;1.40;;
68214;SDS011;55036;52.138;5.236;2023-04-03T16:30:10;4.32;;;1.38;;
68214;SDS011;55036;52.138;5.236;2023-04-03T16:32:37;4.22;;;1.20;;
68214;SDS011;55036;52.138;5.236;2023-04-03T16:35:05;2.60;;;1.02;;
68214;SDS011;55036;52.138;5.236;2023-04-03T16:37:32;3.90;;;1.50;;
68214;SDS011;55036;52.138;5.236;2023-04-03T16:39:59;7.35;;;1.88;;
68214;SDS011;55036;52.138;5.236;2023-04-03T16:42:26;4.50;;;1.48;;
68214;SDS011;55036;52.138;5.236;2023-04-03T16:44:52;2.75;;;1.40;;
68214;SDS011;55036;52.138;5.236;2023-04-03T16:47:19;2.20;;;1.00;;
68214;SDS011;55036;52.138;5.236;2023-04-03T16:49:46;4.75;;;1.52;;